Terminal Aerodrome Forecast
Issued by NWS St Louis, MO

Home | Current Version | Previous Version | Graphics & Text | Print | Product List | Glossary On
Versions: 1 2 3 4 5 6 7 8 9 10 11 12 13 14 15 16 17 18 19 20 21 22 23 24
000
FTUS43 KLSX 251500 AAA
TAFCOU
TAF AMD
KCOU 251508Z 2515/2612 18012KT P6SM BKN028 OVC050
     FM251600 22011KT P6SM VCSH BKN028
     FM251900 31013KT 5SM -SHRA BR OVC012
     FM260000 02010KT P6SM OVC009=

USA.gov is the U.S. government's official web portal to all federal, state and local government web resources and services.